Terminal Aerodrome Forecast
Issued by NWS

Home | Current Version | Previous Version | Text Only | Print | Product List | Glossary On
Versions: 1 2 3 4 5 6 7 8 9 10 11 12 13 14 15 16 17 18 19 20 21 22 23 24
000
FTUS45 KGJT 301756 AAA
TAFVEL
TAF AMD
KVEL 301756Z 3018/0118 20003KT P6SM VCTS SCT080CB BKN200
      TEMPO 3018/3022 VRB10G30KT TS SCT050CB BKN080
     FM010300 28005KT P6SM FEW120 BKN200
     FM011300 VRB03KT P6SM SCT090 BKN200=

USA.gov is the U.S. government's official web portal to all federal, state and local government web resources and services.